TAF

Looking For Latest

Worst Weather Category
LocationTimeVisiblityCeilingWeatherWind SpeedWind Gust
KSNA231736Z6NONENONE SW 8NA NA

  • TAFSNA TAF KSNA 231736Z 2318/2418 VRB03KT P6SM FEW170
          FM231900 22008KT P6SM SKC
          FM240200 VRB04KT P6SM FEW008 =